Media — D7SI — position and weather

sailwx.info

Track history (hours):
 
Tides and Currents Weather Stations Pressure Air Temp Water Temp Dewpoint Dewpoint Depression Visibility Wind Speed Wind Dir Waves Ship Positions

Media

Last reported at 2018-Jan-06 16:42 UTC. Time now 2018-Jan-18 02:15 UTC.
Position N 31°02' E 122°15'.
Warning: this ship's position is 11 days out of date.

Length 105 m; draft 4.5 m.

Type: Tanker. MMSI: 440691000.

Date/timePositionNaut miles runAvg speedWind from/ knotsBaromVisibWave heightAir tempDewpointWater temp
2018-Jan-06 16:42N 31°02' E 122°15'2 8.8
2018-Jan-06 16:29N 31°02' E 122°13'3 6.4
2018-Jan-06 15:58N 31°03' E 122°09'4 8.6
2018-Jan-06 15:30N 31°04' E 122°04'5 9.8
2018-Jan-06 15:01N 31°06' E 121°59'612.3
2018-Jan-06 14:30N 31°09' E 121°53'714.4
2018-Jan-06 14:00N 31°14' E 121°47'1911.7
2018-Jan-06 12:21N 31°26' E 121°29'410.1
2018-Jan-06 12:00N 31°29' E 121°27'612.0
2018-Jan-06 11:30N 31°32' E 121°21'612.1
2018-Jan-06 11:00N 31°37' E 121°16'611.9
2018-Jan-06 10:30N 31°41' E 121°11'510.3
2018-Jan-06 10:00N 31°44' E 121°06'34 9.2
2018-Jan-06 06:19N 32°01' E 120°32'412.7
2018-Jan-06 05:59N 32°02' E 120°27'  
2018-Jan-03 02:47N 32°02' E 120°26'35 7.3
2018-Jan-02 22:03N 31°46' E 121°03'1 7.6
2018-Jan-02 21:53N 31°46' E 121°04'3 8.8
2018-Jan-02 21:30N 31°44' E 121°07'5 9.3
2018-Jan-02 21:01N 31°41' E 121°11'5 9.6
2018-Jan-02 20:30N 31°38' E 121°16'5 9.5
2018-Jan-02 20:00N 31°34' E 121°19'1 2.1
2018-Jan-02 19:30N 31°35' E 121°20'0 0.1
2018-Jan-02 19:00N 31°35' E 121°20'0 0.0
2018-Jan-02 18:30N 31°35' E 121°20'0 0.0
2018-Jan-02 18:00N 31°35' E 121°20'0 0.0
2018-Jan-02 17:30N 31°35' E 121°20'0 0.0
2018-Jan-02 17:00N 31°35' E 121°20'0 0.0
2018-Jan-02 16:30N 31°35' E 121°20'0 0.0
2018-Jan-02 16:01N 31°35' E 121°20'0 0.0
2018-Jan-02 15:30N 31°35' E 121°20'0 0.1
2018-Jan-02 15:00N 31°35' E 121°20'0 0.2
2018-Jan-02 14:30N 31°35' E 121°20'0 0.0
2018-Jan-02 14:00N 31°35' E 121°20'0 0.1
2018-Jan-02 13:30N 31°35' E 121°20'0 0.0
2018-Jan-02 13:00N 31°35' E 121°20'0 0.0
2018-Jan-02 12:30N 31°35' E 121°20'0 0.0
2018-Jan-02 12:00N 31°35' E 121°20'0 0.0
2018-Jan-02 11:30N 31°35' E 121°20'0 0.1
2018-Jan-02 11:00N 31°35' E 121°20'0 0.0
2018-Jan-02 10:30N 31°35' E 121°20'0 0.0
2018-Jan-02 10:00N 31°35' E 121°20'0 0.0
2018-Jan-02 09:31N 31°35' E 121°20'0 0.0
2018-Jan-02 08:31N 31°35' E 121°20'0 0.2
2018-Jan-02 08:00N 31°35' E 121°20'0 0.1
2018-Jan-02 07:30N 31°35' E 121°20'0 0.0
2018-Jan-02 07:00N 31°35' E 121°20'0 0.0
2018-Jan-02 06:30N 31°35' E 121°20'0 0.0
2018-Jan-02 06:00N 31°35' E 121°20'0 0.1
2018-Jan-02 05:30N 31°35' E 121°20'8 8.1
2018-Jan-02 04:30N 31°29' E 121°27'3 6.5
2018-Jan-02 04:00N 31°26' E 121°29'5 8.9
2018-Jan-02 03:27N 31°24' E 121°34'2211.7
2018-Jan-02 01:37N 31°09' E 121°53'113.6
2018-Jan-02 01:30N 31°09' E 121°54'612.1
2018-Jan-02 01:00N 31°05' E 122°00'  
2017-Dec-30 00:21N 33°58' E 129°59'511.0
2017-Dec-29 23:56N 33°59' E 130°05'510.7
2017-Dec-29 23:30N 33°59' E 130°10'511.0
2017-Dec-29 23:00N 33°60' E 130°17'510.9
2017-Dec-29 22:30N 34°00' E 130°23'611.0
2017-Dec-29 22:00N 34°01' E 130°30'510.8
2017-Dec-29 21:30N 34°02' E 130°36'510.8
2017-Dec-29 21:00N 34°03' E 130°43'510.7
2017-Dec-29 20:31N 34°02' E 130°49'510.1
2017-Dec-29 20:00N 33°57' E 130°51'4 8.1
2017-Dec-29 19:30N 33°56' E 130°56'5 9.4
2017-Dec-29 19:00N 33°59' E 131°00'510.5
2017-Dec-29 18:30N 33°56' E 131°05'611.2
2017-Dec-29 18:00N 33°52' E 131°11'611.2
2017-Dec-29 17:30N 33°51' E 131°17'611.0
2017-Dec-29 17:00N 33°50' E 131°24'510.8
2017-Dec-29 16:30N 33°49' E 131°30'510.7
2017-Dec-29 16:00N 33°48' E 131°36'510.6
2017-Dec-29 15:30N 33°46' E 131°43'5 9.7
2017-Dec-29 15:00N 33°42' E 131°46'5 9.7
2017-Dec-29 14:30N 33°38' E 131°48'5 9.1
2017-Dec-29 14:01N 33°34' E 131°51'5 8.7
2017-Dec-29 13:28N 33°29' E 131°53'4 7.9
2017-Dec-29 13:00N 33°26' E 131°51'510.0
2017-Dec-29 12:28N 33°22' E 131°46'510.3
2017-Dec-29 12:00N 33°19' E 131°42'3 0.2
2017-Dec-28 22:48N 33°16' E 131°41'0 1.2
2017-Dec-28 22:28N 33°16' E 131°41'2 3.4
2017-Dec-28 21:56N 33°17' E 131°39'0 0.2
2017-Dec-28 21:30N 33°17' E 131°39'0 0.0
2017-Dec-28 21:00N 33°17' E 131°39'0 0.0
2017-Dec-28 20:30N 33°17' E 131°39'0 0.0
2017-Dec-28 20:00N 33°17' E 131°39'0 0.0
2017-Dec-28 19:30N 33°17' E 131°39'0 0.1
2017-Dec-28 18:59N 33°17' E 131°39'0 0.0
2017-Dec-28 18:30N 33°17' E 131°39'0 0.0
2017-Dec-28 17:59N 33°17' E 131°39'0 0.2
2017-Dec-28 17:30N 33°17' E 131°39'0 0.0
2017-Dec-28 17:00N 33°17' E 131°39'0 0.1
2017-Dec-28 16:30N 33°17' E 131°39'0 0.0
2017-Dec-28 15:59N 33°17' E 131°39'0 0.0
2017-Dec-28 15:30N 33°17' E 131°39'0 0.0
2017-Dec-28 14:55N 33°17' E 131°39'0 0.0
2017-Dec-28 14:24N 33°17' E 131°39'0 0.0
2017-Dec-28 14:00N 33°17' E 131°39'0 0.0
2017-Dec-28 13:27N 33°17' E 131°39'0 0.0
2017-Dec-28 13:00N 33°17' E 131°39'0 0.0
2017-Dec-28 12:30N 33°17' E 131°39'0 0.0
2017-Dec-28 11:59N 33°17' E 131°39'0 0.0
2017-Dec-28 11:29N 33°17' E 131°39'0 0.0
2017-Dec-28 11:00N 33°17' E 131°39'0 0.0
2017-Dec-28 10:27N 33°17' E 131°39'0 0.0
2017-Dec-28 10:00N 33°16' E 131°39'0 0.0
2017-Dec-28 09:30N 33°16' E 131°39'0 0.0
2017-Dec-28 09:00N 33°16' E 131°39'0 0.0
2017-Dec-28 08:30N 33°16' E 131°39'0 0.0
2017-Dec-28 08:00N 33°16' E 131°39'0 0.0
2017-Dec-28 07:30N 33°16' E 131°39'0 0.0
2017-Dec-28 07:00N 33°16' E 131°39'0 0.0
2017-Dec-28 06:29N 33°16' E 131°39'0 0.0
2017-Dec-28 06:00N 33°16' E 131°39'0 0.0
2017-Dec-28 05:30N 33°16' E 131°39'0 0.0
2017-Dec-28 05:00N 33°16' E 131°39'0 0.1
2017-Dec-28 04:30N 33°16' E 131°39'0 0.1
2017-Dec-28 04:00N 33°16' E 131°39'0 0.0
2017-Dec-28 03:29N 33°17' E 131°39'0 0.0
2017-Dec-28 02:59N 33°17' E 131°39'0 0.0
2017-Dec-28 02:30N 33°17' E 131°39'0 0.0
2017-Dec-28 02:00N 33°17' E 131°39'0 0.0
2017-Dec-28 01:30N 33°17' E 131°39'0 0.0
2017-Dec-28 01:00N 33°17' E 131°39'0 0.1
2017-Dec-28 00:30N 33°17' E 131°39'0 0.0
2017-Dec-28 00:00N 33°17' E 131°39'0 0.0
2017-Dec-27 23:30N 33°17' E 131°39'0 0.1
2017-Dec-27 23:00N 33°17' E 131°39'0 0.0
2017-Dec-27 22:29N 33°17' E 131°39'0 0.0
2017-Dec-27 22:00N 33°17' E 131°39'0 0.1
2017-Dec-27 21:30N 33°17' E 131°39'0 0.7
2017-Dec-27 21:00N 33°17' E 131°39'4 8.1
2017-Dec-27 20:28N 33°19' E 131°44'5 9.8
2017-Dec-27 20:00N 33°19' E 131°49'5 9.6
2017-Dec-27 19:28N 33°19' E 131°55'5 9.5
2017-Dec-27 18:57N 33°17' E 132°01'5 9.1
2017-Dec-27 18:26N 33°14' E 132°04'  
Track history (hours):
 
Tides and Currents Weather Stations Pressure Air Temp Water Temp Dewpoint Dewpoint Depression Visibility Wind Speed Wind Dir Waves Ship Positions

Media

Last reported at 2018-Jan-06 16:42 UTC. Time now 2018-Jan-18 02:15 UTC.
Position N 31°02' E 122°15'.
Warning: this ship's position is 11 days out of date.

Length 105 m; draft 4.5 m.

Type: Tanker. MMSI: 440691000.

Date/timePositionNaut miles runAvg speedWind from/ knotsBaromVisibWave heightAir tempDewpointWater temp
2018-Jan-06 16:42N 31°02' E 122°15'2 8.8
2018-Jan-06 16:29N 31°02' E 122°13'3 6.4
2018-Jan-06 15:58N 31°03' E 122°09'4 8.6
2018-Jan-06 15:30N 31°04' E 122°04'5 9.8
2018-Jan-06 15:01N 31°06' E 121°59'612.3
2018-Jan-06 14:30N 31°09' E 121°53'714.4
2018-Jan-06 14:00N 31°14' E 121°47'1911.7
2018-Jan-06 12:21N 31°26' E 121°29'410.1
2018-Jan-06 12:00N 31°29' E 121°27'612.0
2018-Jan-06 11:30N 31°32' E 121°21'612.1
2018-Jan-06 11:00N 31°37' E 121°16'611.9
2018-Jan-06 10:30N 31°41' E 121°11'510.3
2018-Jan-06 10:00N 31°44' E 121°06'34 9.2
2018-Jan-06 06:19N 32°01' E 120°32'412.7
2018-Jan-06 05:59N 32°02' E 120°27'  
2018-Jan-03 02:47N 32°02' E 120°26'35 7.3
2018-Jan-02 22:03N 31°46' E 121°03'1 7.6
2018-Jan-02 21:53N 31°46' E 121°04'3 8.8
2018-Jan-02 21:30N 31°44' E 121°07'5 9.3
2018-Jan-02 21:01N 31°41' E 121°11'5 9.6
2018-Jan-02 20:30N 31°38' E 121°16'5 9.5
2018-Jan-02 20:00N 31°34' E 121°19'1 2.1
2018-Jan-02 19:30N 31°35' E 121°20'0 0.1
2018-Jan-02 19:00N 31°35' E 121°20'0 0.0
2018-Jan-02 18:30N 31°35' E 121°20'0 0.0
2018-Jan-02 18:00N 31°35' E 121°20'0 0.0
2018-Jan-02 17:30N 31°35' E 121°20'0 0.0
2018-Jan-02 17:00N 31°35' E 121°20'0 0.0
2018-Jan-02 16:30N 31°35' E 121°20'0 0.0
2018-Jan-02 16:01N 31°35' E 121°20'0 0.0
2018-Jan-02 15:30N 31°35' E 121°20'0 0.1
2018-Jan-02 15:00N 31°35' E 121°20'0 0.2
2018-Jan-02 14:30N 31°35' E 121°20'0 0.0
2018-Jan-02 14:00N 31°35' E 121°20'0 0.1
2018-Jan-02 13:30N 31°35' E 121°20'0 0.0
2018-Jan-02 13:00N 31°35' E 121°20'0 0.0
2018-Jan-02 12:30N 31°35' E 121°20'0 0.0
2018-Jan-02 12:00N 31°35' E 121°20'0 0.0
2018-Jan-02 11:30N 31°35' E 121°20'0 0.1
2018-Jan-02 11:00N 31°35' E 121°20'0 0.0
2018-Jan-02 10:30N 31°35' E 121°20'0 0.0
2018-Jan-02 10:00N 31°35' E 121°20'0 0.0
2018-Jan-02 09:31N 31°35' E 121°20'0 0.0
2018-Jan-02 08:31N 31°35' E 121°20'0 0.2
2018-Jan-02 08:00N 31°35' E 121°20'0 0.1
2018-Jan-02 07:30N 31°35' E 121°20'0 0.0
2018-Jan-02 07:00N 31°35' E 121°20'0 0.0
2018-Jan-02 06:30N 31°35' E 121°20'0 0.0
2018-Jan-02 06:00N 31°35' E 121°20'0 0.1
2018-Jan-02 05:30N 31°35' E 121°20'8 8.1
2018-Jan-02 04:30N 31°29' E 121°27'3 6.5
2018-Jan-02 04:00N 31°26' E 121°29'5 8.9
2018-Jan-02 03:27N 31°24' E 121°34'2211.7
2018-Jan-02 01:37N 31°09' E 121°53'113.6
2018-Jan-02 01:30N 31°09' E 121°54'612.1
2018-Jan-02 01:00N 31°05' E 122°00'  
2017-Dec-30 00:21N 33°58' E 129°59'511.0
2017-Dec-29 23:56N 33°59' E 130°05'510.7
2017-Dec-29 23:30N 33°59' E 130°10'511.0
2017-Dec-29 23:00N 33°60' E 130°17'510.9
2017-Dec-29 22:30N 34°00' E 130°23'611.0
2017-Dec-29 22:00N 34°01' E 130°30'510.8
2017-Dec-29 21:30N 34°02' E 130°36'510.8
2017-Dec-29 21:00N 34°03' E 130°43'510.7
2017-Dec-29 20:31N 34°02' E 130°49'510.1
2017-Dec-29 20:00N 33°57' E 130°51'4 8.1
2017-Dec-29 19:30N 33°56' E 130°56'5 9.4
2017-Dec-29 19:00N 33°59' E 131°00'510.5
2017-Dec-29 18:30N 33°56' E 131°05'611.2
2017-Dec-29 18:00N 33°52' E 131°11'611.2
2017-Dec-29 17:30N 33°51' E 131°17'611.0
2017-Dec-29 17:00N 33°50' E 131°24'510.8
2017-Dec-29 16:30N 33°49' E 131°30'510.7
2017-Dec-29 16:00N 33°48' E 131°36'510.6
2017-Dec-29 15:30N 33°46' E 131°43'5 9.7
2017-Dec-29 15:00N 33°42' E 131°46'5 9.7
2017-Dec-29 14:30N 33°38' E 131°48'5 9.1
2017-Dec-29 14:01N 33°34' E 131°51'5 8.7
2017-Dec-29 13:28N 33°29' E 131°53'4 7.9
2017-Dec-29 13:00N 33°26' E 131°51'510.0
2017-Dec-29 12:28N 33°22' E 131°46'510.3
2017-Dec-29 12:00N 33°19' E 131°42'3 0.2
2017-Dec-28 22:48N 33°16' E 131°41'0 1.2
2017-Dec-28 22:28N 33°16' E 131°41'2 3.4
2017-Dec-28 21:56N 33°17' E 131°39'0 0.2
2017-Dec-28 21:30N 33°17' E 131°39'0 0.0
2017-Dec-28 21:00N 33°17' E 131°39'0 0.0
2017-Dec-28 20:30N 33°17' E 131°39'0 0.0
2017-Dec-28 20:00N 33°17' E 131°39'0 0.0
2017-Dec-28 19:30N 33°17' E 131°39'0 0.1
2017-Dec-28 18:59N 33°17' E 131°39'0 0.0
2017-Dec-28 18:30N 33°17' E 131°39'0 0.0
2017-Dec-28 17:59N 33°17' E 131°39'0 0.2
2017-Dec-28 17:30N 33°17' E 131°39'0 0.0
2017-Dec-28 17:00N 33°17' E 131°39'0 0.1
2017-Dec-28 16:30N 33°17' E 131°39'0 0.0
2017-Dec-28 15:59N 33°17' E 131°39'0 0.0
2017-Dec-28 15:30N 33°17' E 131°39'0 0.0
2017-Dec-28 14:55N 33°17' E 131°39'0 0.0
2017-Dec-28 14:24N 33°17' E 131°39'0 0.0
2017-Dec-28 14:00N 33°17' E 131°39'0 0.0
2017-Dec-28 13:27N 33°17' E 131°39'0 0.0
2017-Dec-28 13:00N 33°17' E 131°39'0 0.0
2017-Dec-28 12:30N 33°17' E 131°39'0 0.0
2017-Dec-28 11:59N 33°17' E 131°39'0 0.0
2017-Dec-28 11:29N 33°17' E 131°39'0 0.0
2017-Dec-28 11:00N 33°17' E 131°39'0 0.0
2017-Dec-28 10:27N 33°17' E 131°39'0 0.0
2017-Dec-28 10:00N 33°16' E 131°39'0 0.0
2017-Dec-28 09:30N 33°16' E 131°39'0 0.0
2017-Dec-28 09:00N 33°16' E 131°39'0 0.0
2017-Dec-28 08:30N 33°16' E 131°39'0 0.0
2017-Dec-28 08:00N 33°16' E 131°39'0 0.0
2017-Dec-28 07:30N 33°16' E 131°39'0 0.0
2017-Dec-28 07:00N 33°16' E 131°39'0 0.0
2017-Dec-28 06:29N 33°16' E 131°39'0 0.0
2017-Dec-28 06:00N 33°16' E 131°39'0 0.0
2017-Dec-28 05:30N 33°16' E 131°39'0 0.0
2017-Dec-28 05:00N 33°16' E 131°39'0 0.1
2017-Dec-28 04:30N 33°16' E 131°39'0 0.1
2017-Dec-28 04:00N 33°16' E 131°39'0 0.0
2017-Dec-28 03:29N 33°17' E 131°39'0 0.0
2017-Dec-28 02:59N 33°17' E 131°39'0 0.0
2017-Dec-28 02:30N 33°17' E 131°39'0 0.0
2017-Dec-28 02:00N 33°17' E 131°39'0 0.0
2017-Dec-28 01:30N 33°17' E 131°39'0 0.0
2017-Dec-28 01:00N 33°17' E 131°39'0 0.1
2017-Dec-28 00:30N 33°17' E 131°39'0 0.0
2017-Dec-28 00:00N 33°17' E 131°39'0 0.0
2017-Dec-27 23:30N 33°17' E 131°39'0 0.1
2017-Dec-27 23:00N 33°17' E 131°39'0 0.0
2017-Dec-27 22:29N 33°17' E 131°39'0 0.0
2017-Dec-27 22:00N 33°17' E 131°39'0 0.1
2017-Dec-27 21:30N 33°17' E 131°39'0 0.7
2017-Dec-27 21:00N 33°17' E 131°39'4 8.1
2017-Dec-27 20:28N 33°19' E 131°44'5 9.8
2017-Dec-27 20:00N 33°19' E 131°49'5 9.6
2017-Dec-27 19:28N 33°19' E 131°55'5 9.5
2017-Dec-27 18:57N 33°17' E 132°01'5 9.1
2017-Dec-27 18:26N 33°14' E 132°04'  

Dump ship's entire track history